Pagrindinis puslapis
METAR-TAF:

METAR-TAF

Oro uostai :

Kuantan, Malaizija

platuma: 03-37N, ilguma: 103-13E, Aukštis: 18 m

Dabartinis oras

Ataskaita buvo paskelbta 34 minutes, ne 20:00 UTC
Ramus vėjas
Temperatūra 24°C
Drėgmė 94%
Slėgis 1011 hPa
Matomumas: 6000 m
Mažai debesys ne aukštis 2500 ft
Išsisklaidę debesys ne aukštis 16000 ft
Su prošvaistėmis ne aukštis 28000 ft

METAR: WMKD 172000Z 00000KT 6000 FEW025 SCT160 BKN280 24/23 Q1011 NOSIG

Laikas: 04:34 (20:34 UTC)


TAF: trūkstamas

Orai ataskaitas ir orų prognozės (METAR, TAF).

turimą stotys yra geltonos ir raudonos taškus žemėlapyje.

Perkelti pele per norėdami pamatyti stoties vardą.

Tada spustelėkite, norėdami matyti oro stebėjimo ir prognozės.

Norėdami pakeisti žemėlapį: spustelėkite ant žalios mygtukų su juodo kryžiaus žemyn,; žalią mygtuką su brūkšneliu, jei norite nutolinti; arba žalių rodyklių gretimoms žemėlapius.


METAR-TAF: